Portada
METAR-TAF:

METAR-TAF

Aeroports :

Samsun, Turquia

latitud: 41-15-15N, longitud: 036-34-03E, altitud: 5 m

Observació

L'informe es va fer fa 54 minuts, a les 21:50 UTC
Vent 9 kt del Nord-Oest
Temperatura 23°C
Humitat 78%
Pressió 1016 hPa
Visibilitat 10 km o més
Núvols disperses a una alçada de 3400 ft

METAR: LTFH 202150Z 31009KT 9999 SCT034 23/19 Q1016 NOSIG

Hora: 01:44 (22:44 UTC)

Pronòstic

L'informe es va fer fa 3 hores i 4 minuts, a les 19:40 UTC
Pronòstic vàlid del 20 a les 21 UTC al 21 a les 06 UTC
Vent 7 kt del Nord-Oest
Visibilitat 10 km o més
Núvols disperses a una alçada de 3400 ft

TAF: LTFH 201940Z 2021/2106 32007KT 9999 SCT034

Observacions i pronòstics meteorològics de més de 4000 aeroports (METAR i TAF).

Les estacions disponibles són els punts grocs i vermells al mapa.

Posi el ratolí al punt desitjat per veure el nom de l'estació.

Feu clic per veure les observacions i els pronòstics meteorològics.

Per canviar el mapa: feu clic els botons verds amb una creu de color negre per apropar; al botó verd amb un guió per allunyar la imatge; o en les fletxes verdes per a mapes adjacents.


METAR-TAF: